createdAt,value
2019-05-26T00:00:04.047Z,2.27
2019-05-26T00:01:09.454Z,2.40
2019-05-26T00:02:15.644Z,2.33
2019-05-26T00:03:21.053Z,2.20
2019-05-26T00:04:27.193Z,2.30
2019-05-26T00:05:32.356Z,2.10
2019-05-26T00:06:38.576Z,2.40
2019-05-26T00:07:44.212Z,1.90
2019-05-26T00:08:50.591Z,2.10
2019-05-26T00:09:55.686Z,2.37
2019-05-26T00:11:01.857Z,2.27
2019-05-26T00:12:06.982Z,2.80
2019-05-26T00:13:13.015Z,2.63
2019-05-26T00:14:18.448Z,2.87
2019-05-26T00:15:24.312Z,2.70
2019-05-26T00:16:29.341Z,2.10
2019-05-26T00:17:35.428Z,2.80
2019-05-26T00:18:40.657Z,2.60
2019-05-26T00:19:46.648Z,2.30
2019-05-26T00:20:52.015Z,2.20
2019-05-26T00:21:58.490Z,2.30
2019-05-26T00:23:04.225Z,2.20
2019-05-26T00:24:10.461Z,2.30
2019-05-26T00:25:15.934Z,2.43
2019-05-26T00:26:21.888Z,2.17
2019-05-26T00:27:27.276Z,2.40
2019-05-26T00:28:33.468Z,2.43
2019-05-26T00:29:38.572Z,2.20
2019-05-26T00:30:44.724Z,2.17
2019-05-26T00:31:50.234Z,2.07
2019-05-26T00:32:56.958Z,2.00
2019-05-26T00:34:02.324Z,2.17
2019-05-26T00:35:09.374Z,2.27
2019-05-26T00:36:14.660Z,2.33
2019-05-26T00:37:20.811Z,2.20
2019-05-26T00:38:26.160Z,2.10
2019-05-26T00:39:32.163Z,2.50
2019-05-26T00:40:38.027Z,2.43
2019-05-26T00:41:43.904Z,2.40
2019-05-26T00:42:48.997Z,2.30
2019-05-26T00:43:55.557Z,2.37
2019-05-26T00:45:01.058Z,2.57
2019-05-26T00:46:07.011Z,2.03
2019-05-26T00:47:12.454Z,2.40
2019-05-26T00:48:18.653Z,2.40
2019-05-26T00:49:23.853Z,2.70
2019-05-26T00:50:30.057Z,2.13
2019-05-26T00:51:35.294Z,2.33
2019-05-26T00:52:41.653Z,2.00
2019-05-26T00:53:47.099Z,2.17
2019-05-26T00:54:53.429Z,2.10
2019-05-26T00:55:58.954Z,2.97
2019-05-26T00:57:05.371Z,2.57
2019-05-26T00:58:10.880Z,1.93
2019-05-26T00:59:17.421Z,2.33
2019-05-26T01:00:42.795Z,2.50
2019-05-26T01:01:52.442Z,2.63
2019-05-26T01:03:00.323Z,2.30
2019-05-26T01:04:10.137Z,2.63
2019-05-26T01:05:16.876Z,2.20
2019-05-26T01:06:23.652Z,2.20
2019-05-26T01:07:38.278Z,2.37
2019-05-26T01:08:45.975Z,2.27
2019-05-26T01:09:50.974Z,2.47
2019-05-26T01:11:01.115Z,2.20
2019-05-26T01:12:05.141Z,2.37
2019-05-26T01:13:11.112Z,2.30
2019-05-26T01:14:16.496Z,2.40
2019-05-26T01:15:22.707Z,2.60
2019-05-26T01:16:28.174Z,2.30
2019-05-26T01:17:34.080Z,2.53
2019-05-26T01:18:39.472Z,2.50
2019-05-26T01:19:45.674Z,2.50
2019-05-26T01:20:50.978Z,2.50
2019-05-26T01:21:56.850Z,2.47
2019-05-26T01:23:02.669Z,2.30
2019-05-26T01:24:08.845Z,2.30
2019-05-26T01:25:14.370Z,2.40
2019-05-26T01:26:20.678Z,2.07
2019-05-26T01:27:25.707Z,2.50
2019-05-26T01:28:31.584Z,2.40
2019-05-26T01:29:36.779Z,2.53
2019-05-26T01:30:43.071Z,2.23
2019-05-26T01:31:48.477Z,2.30
2019-05-26T01:32:54.424Z,2.60
2019-05-26T01:33:59.939Z,2.50
2019-05-26T01:35:06.700Z,2.23
2019-05-26T01:36:12.184Z,2.07
2019-05-26T01:37:18.284Z,2.50
2019-05-26T01:38:24.666Z,2.53
2019-05-26T01:39:30.715Z,2.30
2019-05-26T01:40:41.010Z,2.30
2019-05-26T01:41:46.866Z,2.40
2019-05-26T01:42:52.204Z,2.27
2019-05-26T01:43:58.250Z,2.20
2019-05-26T01:45:03.614Z,2.40
2019-05-26T01:46:09.665Z,2.47
2019-05-26T01:47:15.358Z,2.17
2019-05-26T01:48:21.244Z,2.20
2019-05-26T01:49:26.250Z,2.00
2019-05-26T01:50:32.396Z,2.47
2019-05-26T01:51:37.713Z,2.60
2019-05-26T01:52:43.964Z,2.20
2019-05-26T01:53:49.712Z,2.40
2019-05-26T01:54:56.435Z,2.63
2019-05-26T01:56:01.597Z,2.20
2019-05-26T01:57:07.456Z,2.40
2019-05-26T01:58:12.718Z,2.60
2019-05-26T01:59:18.884Z,2.30
2019-05-26T02:00:26.319Z,2.30
2019-05-26T02:01:33.359Z,2.33
2019-05-26T02:02:39.790Z,2.53
2019-05-26T02:03:45.643Z,2.40
2019-05-26T02:04:50.876Z,2.57
2019-05-26T02:05:56.851Z,2.30
2019-05-26T02:07:02.199Z,2.50
2019-05-26T02:08:11.687Z,2.60
2019-05-26T02:09:15.183Z,2.20
2019-05-26T02:10:21.717Z,2.60
2019-05-26T02:11:26.904Z,2.03
2019-05-26T02:12:33.131Z,2.63
2019-05-26T02:13:38.490Z,2.73
2019-05-26T02:14:45.005Z,2.43
2019-05-26T02:15:50.113Z,2.67
2019-05-26T02:16:56.042Z,2.57
2019-05-26T02:18:01.415Z,2.50
2019-05-26T02:19:07.401Z,2.57
2019-05-26T02:20:13.235Z,2.53
2019-05-26T02:21:19.300Z,2.40
2019-05-26T02:22:24.625Z,2.40
2019-05-26T02:23:31.190Z,2.23
2019-05-26T02:24:36.600Z,2.23
2019-05-26T02:25:43.297Z,2.53
2019-05-26T02:26:49.060Z,2.33
2019-05-26T02:27:55.301Z,2.07
2019-05-26T02:29:00.255Z,2.30
2019-05-26T02:30:07.310Z,2.13
2019-05-26T02:31:13.132Z,2.20
2019-05-26T02:32:18.918Z,2.23
2019-05-26T02:33:23.935Z,2.10
2019-05-26T02:34:29.846Z,2.43
2019-05-26T02:35:35.639Z,2.37
2019-05-26T02:36:41.517Z,2.20
2019-05-26T02:37:47.634Z,2.00
2019-05-26T02:39:01.822Z,2.37
2019-05-26T02:40:00.842Z,2.63
2019-05-26T02:41:06.854Z,2.77
2019-05-26T02:42:12.308Z,2.53
2019-05-26T02:43:18.994Z,2.50
2019-05-26T02:44:24.436Z,2.33
2019-05-26T02:45:30.369Z,2.83
2019-05-26T02:46:35.802Z,2.27
2019-05-26T02:47:41.984Z,2.77
2019-05-26T02:48:48.866Z,2.30
2019-05-26T02:49:55.632Z,2.67
2019-05-26T02:51:00.790Z,2.47
2019-05-26T02:52:06.728Z,2.40
2019-05-26T02:53:12.135Z,2.50
2019-05-26T02:54:18.316Z,2.63
2019-05-26T02:55:23.473Z,2.63
2019-05-26T02:56:29.804Z,2.33
2019-05-26T02:57:35.320Z,2.23
2019-05-26T02:58:41.512Z,2.30
2019-05-26T02:59:46.539Z,2.40
2019-05-26T03:00:52.822Z,2.23
2019-05-26T03:02:04.012Z,2.60
2019-05-26T03:03:06.511Z,2.27
2019-05-26T03:04:12.723Z,2.63
2019-05-26T03:05:18.938Z,2.40
2019-05-26T03:06:26.210Z,2.57
2019-05-26T03:07:33.420Z,2.47
2019-05-26T03:08:39.667Z,2.40
2019-05-26T03:09:47.486Z,2.23
2019-05-26T03:10:54.231Z,2.40
2019-05-26T03:12:03.922Z,2.10
2019-05-26T03:13:11.180Z,2.63
2019-05-26T03:14:20.757Z,2.30
2019-05-26T03:15:25.847Z,2.60
2019-05-26T03:16:34.465Z,2.50
2019-05-26T03:17:42.399Z,2.20
2019-05-26T03:18:51.920Z,2.53
2019-05-26T03:19:59.073Z,2.67
2019-05-26T03:21:06.325Z,2.43
2019-05-26T03:22:14.647Z,2.77
2019-05-26T03:23:20.829Z,2.80
2019-05-26T03:24:29.635Z,2.80
2019-05-26T03:25:37.869Z,2.23
2019-05-26T03:26:42.960Z,2.60
2019-05-26T03:27:48.897Z,2.80
2019-05-26T03:28:54.520Z,2.63
2019-05-26T03:30:00.942Z,2.83
2019-05-26T03:31:06.465Z,2.30
2019-05-26T03:32:12.687Z,2.80
2019-05-26T03:33:17.696Z,2.60
2019-05-26T03:34:24.118Z,2.37
2019-05-26T03:35:29.218Z,2.90
2019-05-26T03:36:35.019Z,2.57
2019-05-26T03:37:40.555Z,2.40
2019-05-26T03:38:46.968Z,2.70
2019-05-26T03:39:52.464Z,2.43
2019-05-26T03:40:58.560Z,2.40
2019-05-26T03:42:03.701Z,2.63
2019-05-26T03:43:09.942Z,2.37
2019-05-26T03:44:15.020Z,2.80
2019-05-26T03:45:28.470Z,2.70
2019-05-26T03:46:33.716Z,2.10
2019-05-26T03:47:39.654Z,2.57
2019-05-26T03:48:44.913Z,3.00
2019-05-26T03:49:50.800Z,2.83
2019-05-26T03:50:56.052Z,2.67
2019-05-26T03:52:21.129Z,2.80
2019-05-26T03:53:26.213Z,2.50
2019-05-26T03:54:35.123Z,2.53
2019-05-26T03:55:40.417Z,2.80
2019-05-26T03:56:46.474Z,2.67
2019-05-26T03:57:51.789Z,3.00
2019-05-26T03:58:58.127Z,2.60
2019-05-26T04:00:03.597Z,2.43
2019-05-26T04:01:09.801Z,2.60
2019-05-26T04:02:14.903Z,2.70
2019-05-26T04:03:21.089Z,2.87
2019-05-26T04:04:26.176Z,2.70
2019-05-26T04:05:32.128Z,2.93
2019-05-26T04:06:37.457Z,3.00
2019-05-26T04:07:43.576Z,2.63
2019-05-26T04:08:49.056Z,2.90
2019-05-26T04:10:04.539Z,3.00
2019-05-26T04:11:02.212Z,2.73
2019-05-26T04:12:08.640Z,2.80
2019-05-26T04:13:13.724Z,2.80
2019-05-26T04:14:19.666Z,2.50
2019-05-26T04:15:25.389Z,3.10
2019-05-26T04:16:31.165Z,2.97
2019-05-26T04:17:36.438Z,2.73
2019-05-26T04:18:42.690Z,2.90
2019-05-26T04:19:47.701Z,3.20
2019-05-26T04:20:53.742Z,3.17
2019-05-26T04:21:58.759Z,3.67
2019-05-26T04:23:04.625Z,2.90
2019-05-26T04:24:10.027Z,2.37
2019-05-26T04:25:15.997Z,3.00
2019-05-26T04:26:21.086Z,2.63
2019-05-26T04:27:27.094Z,2.67
2019-05-26T04:28:32.484Z,2.30
2019-05-26T04:29:38.272Z,2.80
2019-05-26T04:30:43.615Z,2.70
2019-05-26T04:31:49.734Z,2.60
2019-05-26T04:32:55.044Z,2.93
2019-05-26T04:34:01.134Z,2.43
2019-05-26T04:35:07.594Z,3.03
2019-05-26T04:36:13.648Z,2.70
2019-05-26T04:37:18.577Z,2.90
2019-05-26T04:38:24.828Z,2.67
2019-05-26T04:39:30.445Z,2.60
2019-05-26T04:40:36.707Z,3.10
2019-05-26T04:41:41.643Z,2.70
2019-05-26T04:42:47.575Z,2.60
2019-05-26T04:43:52.606Z,2.90
2019-05-26T04:44:58.516Z,2.97
2019-05-26T04:46:03.630Z,2.23
2019-05-26T04:47:09.505Z,2.70
2019-05-26T04:48:15.190Z,2.70
2019-05-26T04:49:21.275Z,2.30
2019-05-26T04:50:26.620Z,2.87
2019-05-26T04:51:32.703Z,2.60
2019-05-26T04:52:38.643Z,2.33
2019-05-26T04:53:44.516Z,2.53
2019-05-26T04:54:49.541Z,2.70
2019-05-26T04:55:55.705Z,2.30
2019-05-26T04:57:01.073Z,2.73
2019-05-26T04:58:07.831Z,2.43
2019-05-26T04:59:13.207Z,2.37
2019-05-26T05:00:19.374Z,2.57
2019-05-26T05:01:24.921Z,2.57
2019-05-26T05:02:30.722Z,2.87
2019-05-26T05:03:36.100Z,2.90
2019-05-26T05:04:41.900Z,2.40
2019-05-26T05:05:47.292Z,2.70
2019-05-26T05:06:53.169Z,2.50
2019-05-26T05:07:58.214Z,2.60
2019-05-26T05:09:06.332Z,2.77
2019-05-26T05:10:11.817Z,2.63
2019-05-26T05:11:18.224Z,2.40
2019-05-26T05:12:23.635Z,3.07
2019-05-26T05:13:29.422Z,2.60
2019-05-26T05:14:34.529Z,2.50
2019-05-26T05:15:40.698Z,2.70
2019-05-26T05:16:46.341Z,2.33
2019-05-26T05:17:52.323Z,2.73
2019-05-26T05:18:57.731Z,2.67
2019-05-26T05:20:04.343Z,2.87
2019-05-26T05:21:09.907Z,3.00
2019-05-26T05:22:16.023Z,2.93
2019-05-26T05:23:21.530Z,2.70
2019-05-26T05:24:27.319Z,2.90
2019-05-26T05:25:32.742Z,2.70
2019-05-26T05:26:38.815Z,2.97
2019-05-26T05:27:44.093Z,2.90
2019-05-26T05:28:50.322Z,2.80
2019-05-26T05:29:55.642Z,2.97
2019-05-26T05:31:01.543Z,3.03
2019-05-26T05:32:06.943Z,2.97
2019-05-26T05:33:13.072Z,3.20
2019-05-26T05:34:18.360Z,3.10
2019-05-26T05:35:24.226Z,2.70
2019-05-26T05:36:30.200Z,3.17
2019-05-26T05:37:36.628Z,3.10
2019-05-26T05:38:41.783Z,3.50
2019-05-26T05:39:48.133Z,3.27
2019-05-26T05:40:59.582Z,3.30
2019-05-26T05:42:01.445Z,2.67
2019-05-26T05:43:06.828Z,3.07
2019-05-26T05:44:13.259Z,4.17
2019-05-26T05:45:19.048Z,4.27
2019-05-26T05:46:25.156Z,4.00
2019-05-26T05:47:30.568Z,3.60
2019-05-26T05:48:36.766Z,3.90
2019-05-26T05:49:42.068Z,4.03
2019-05-26T05:50:47.996Z,4.93
2019-05-26T05:51:53.376Z,7.07
2019-05-26T05:52:59.573Z,8.07
2019-05-26T05:54:05.052Z,6.27
2019-05-26T05:55:11.319Z,5.47
2019-05-26T05:56:16.855Z,4.50
2019-05-26T05:57:22.742Z,4.67
2019-05-26T05:58:28.076Z,4.37
2019-05-26T05:59:34.994Z,4.10
2019-05-26T06:00:40.140Z,4.43
2019-05-26T06:01:46.371Z,4.53
2019-05-26T06:02:51.544Z,5.10
2019-05-26T06:03:57.772Z,6.80
2019-05-26T06:05:03.507Z,6.20
2019-05-26T06:06:09.446Z,6.27
2019-05-26T06:07:14.905Z,7.23
2019-05-26T06:08:21.287Z,7.57
2019-05-26T06:09:26.312Z,13.37
2019-05-26T06:10:32.475Z,16.87
2019-05-26T06:11:38.192Z,17.50
2019-05-26T06:12:44.424Z,17.43
2019-05-26T06:13:50.088Z,17.10
2019-05-26T06:14:56.029Z,18.20
2019-05-26T06:16:00.959Z,15.33
2019-05-26T06:17:10.451Z,20.17
2019-05-26T06:18:14.064Z,20.63
2019-05-26T06:19:19.922Z,21.80
2019-05-26T06:20:25.201Z,20.87
2019-05-26T06:21:31.121Z,21.47
2019-05-26T06:22:36.688Z,23.57
2019-05-26T06:23:42.628Z,24.57
2019-05-26T06:24:47.713Z,23.97
2019-05-26T06:25:53.580Z,25.50
2019-05-26T06:26:58.940Z,25.20
2019-05-26T06:28:05.040Z,24.27
2019-05-26T06:29:10.373Z,24.47
2019-05-26T06:30:17.170Z,23.63
2019-05-26T06:31:22.394Z,24.03
2019-05-26T06:32:28.378Z,24.23
2019-05-26T06:33:34.067Z,23.90
2019-05-26T06:34:40.251Z,23.17
2019-05-26T06:35:46.329Z,23.27
2019-05-26T06:36:52.500Z,22.50
2019-05-26T06:37:57.903Z,21.13
2019-05-26T06:39:05.119Z,23.17
2019-05-26T06:40:10.391Z,22.93
2019-05-26T06:41:30.412Z,23.30
2019-05-26T06:42:23.440Z,21.37
2019-05-26T06:43:29.438Z,22.67
2019-05-26T06:44:52.160Z,21.63
2019-05-26T06:45:42.882Z,21.97
2019-05-26T06:46:47.895Z,20.00
2019-05-26T06:47:54.021Z,19.67
2019-05-26T06:48:59.327Z,19.37
2019-05-26T06:50:05.776Z,19.33
2019-05-26T06:51:10.805Z,18.53
2019-05-26T06:52:17.405Z,18.23
2019-05-26T06:53:22.486Z,18.37
2019-05-26T06:54:28.784Z,16.77
2019-05-26T06:55:34.677Z,16.80
2019-05-26T06:56:40.852Z,17.63
2019-05-26T06:57:46.063Z,17.57
2019-05-26T06:58:52.497Z,17.37
2019-05-26T06:59:57.978Z,17.57
2019-05-26T07:01:03.977Z,16.77
2019-05-26T07:02:09.164Z,17.10
2019-05-26T07:03:15.560Z,16.97
2019-05-26T07:04:20.997Z,17.43
2019-05-26T07:05:27.283Z,18.00
2019-05-26T07:06:32.402Z,16.30
2019-05-26T07:07:38.810Z,16.20
2019-05-26T07:08:44.126Z,16.17
2019-05-26T07:09:50.105Z,16.30
2019-05-26T07:10:55.477Z,17.33
2019-05-26T07:12:01.658Z,16.00
2019-05-26T07:13:06.841Z,15.73
2019-05-26T07:14:13.086Z,15.50
2019-05-26T07:15:19.165Z,16.47
2019-05-26T07:16:37.543Z,14.97
2019-05-26T07:17:32.273Z,15.67
2019-05-26T07:18:38.656Z,15.53
2019-05-26T07:19:44.080Z,15.13
2019-05-26T07:20:49.878Z,14.50
2019-05-26T07:21:54.964Z,14.30
2019-05-26T07:23:01.420Z,14.33
2019-05-26T07:24:07.016Z,13.37
2019-05-26T07:25:13.017Z,13.57
2019-05-26T07:26:18.377Z,12.40
2019-05-26T07:27:24.224Z,12.53
2019-05-26T07:28:29.955Z,11.17
2019-05-26T07:29:36.140Z,11.47
2019-05-26T07:30:41.307Z,11.73
2019-05-26T07:31:47.094Z,10.83
2019-05-26T07:32:52.455Z,9.87
2019-05-26T07:33:58.605Z,10.00
2019-05-26T07:35:03.900Z,10.07
2019-05-26T07:36:10.056Z,10.07
2019-05-26T07:37:15.223Z,10.10
2019-05-26T07:38:21.916Z,8.40
2019-05-26T07:39:27.432Z,8.83
2019-05-26T07:40:33.297Z,9.13
2019-05-26T07:41:38.578Z,10.37
2019-05-26T07:42:44.701Z,9.80
2019-05-26T07:43:49.786Z,9.50
2019-05-26T07:44:55.647Z,7.73
2019-05-26T07:46:01.105Z,9.23
2019-05-26T07:47:06.990Z,10.00
2019-05-26T07:48:12.020Z,9.10
2019-05-26T07:49:19.294Z,9.93
2019-05-26T07:50:24.425Z,9.00
2019-05-26T07:51:30.957Z,8.27
2019-05-26T07:52:36.045Z,9.37
2019-05-26T07:53:42.307Z,8.30
2019-05-26T07:54:47.484Z,8.27
2019-05-26T07:55:53.488Z,9.20
2019-05-26T07:56:59.247Z,9.53
2019-05-26T07:58:05.717Z,8.07
2019-05-26T07:59:10.802Z,8.83
2019-05-26T08:00:17.720Z,7.90
2019-05-26T08:01:24.474Z,7.97
2019-05-26T08:02:30.465Z,8.53
2019-05-26T08:03:35.639Z,7.80
2019-05-26T08:04:41.436Z,8.60
2019-05-26T08:05:46.834Z,8.20
2019-05-26T08:06:52.922Z,8.57
2019-05-26T08:08:11.588Z,8.57
2019-05-26T08:09:08.629Z,8.03
2019-05-26T08:10:15.163Z,7.80
2019-05-26T08:11:21.343Z,8.17
2019-05-26T08:12:30.409Z,8.27
2019-05-26T08:13:34.793Z,8.23
2019-05-26T08:14:39.963Z,8.73
2019-05-26T08:15:46.147Z,7.47
2019-05-26T08:16:51.623Z,8.80
2019-05-26T08:17:57.663Z,8.80
2019-05-26T08:19:02.818Z,8.63
2019-05-26T08:20:09.282Z,7.33
2019-05-26T08:21:14.686Z,6.67
2019-05-26T08:22:21.170Z,7.90
2019-05-26T08:23:26.374Z,7.03
2019-05-26T08:24:32.341Z,7.10
2019-05-26T08:25:37.604Z,6.47
2019-05-26T08:26:43.399Z,6.37
2019-05-26T08:27:48.472Z,7.37
2019-05-26T08:28:55.763Z,7.50
2019-05-26T08:30:00.846Z,6.33
2019-05-26T08:31:06.716Z,6.50
2019-05-26T08:32:14.895Z,7.00
2019-05-26T08:33:19.524Z,6.30
2019-05-26T08:34:24.547Z,5.13
2019-05-26T08:35:30.422Z,5.43
2019-05-26T08:36:35.628Z,5.70
2019-05-26T08:37:41.779Z,4.83
2019-05-26T08:38:47.193Z,5.73
2019-05-26T08:39:53.587Z,4.70
2019-05-26T08:40:59.185Z,5.30
2019-05-26T08:42:05.138Z,6.00
2019-05-26T08:43:10.240Z,4.30
2019-05-26T08:44:16.481Z,4.70
2019-05-26T08:45:23.200Z,4.63
2019-05-26T08:46:29.066Z,5.60
2019-05-26T08:47:34.892Z,5.47
2019-05-26T08:48:40.825Z,4.80
2019-05-26T08:49:45.908Z,4.78
2019-05-26T08:50:51.852Z,4.85
2019-05-26T08:51:57.211Z,4.23
2019-05-26T08:53:03.483Z,4.73
2019-05-26T08:54:08.975Z,4.33
2019-05-26T08:55:15.189Z,3.70
2019-05-26T08:56:20.579Z,3.40
2019-05-26T08:57:26.515Z,3.20
2019-05-26T08:58:31.957Z,3.47
2019-05-26T08:59:38.090Z,3.50
2019-05-26T09:00:43.317Z,3.52
2019-05-26T09:01:49.521Z,4.00
2019-05-26T09:02:54.595Z,3.77
2019-05-26T09:04:00.864Z,3.50
2019-05-26T09:05:07.287Z,3.30
2019-05-26T09:06:13.158Z,2.95
2019-05-26T09:07:18.175Z,3.27
2019-05-26T09:08:24.663Z,2.85
2019-05-26T09:09:30.079Z,2.98
2019-05-26T09:10:36.382Z,2.80
2019-05-26T09:11:41.774Z,2.20
2019-05-26T09:13:00.209Z,2.58
2019-05-26T09:13:54.814Z,2.50
2019-05-26T09:15:00.670Z,2.20
2019-05-26T09:16:05.881Z,2.00
2019-05-26T09:17:11.893Z,2.40
2019-05-26T09:18:17.721Z,1.98
2019-05-26T09:19:23.632Z,2.30
2019-05-26T09:20:29.026Z,1.92
2019-05-26T09:21:35.117Z,1.60
2019-05-26T09:22:40.203Z,2.05
2019-05-26T09:23:46.733Z,2.00
2019-05-26T09:24:52.116Z,2.05
2019-05-26T09:25:58.256Z,2.00
2019-05-26T09:27:03.773Z,2.15
2019-05-26T09:28:10.447Z,2.02
2019-05-26T09:29:15.561Z,2.70
2019-05-26T09:30:21.725Z,2.83
2019-05-26T09:31:27.413Z,2.27
2019-05-26T09:32:33.387Z,1.98
2019-05-26T09:33:38.474Z,1.55
2019-05-26T09:34:44.597Z,1.62
2019-05-26T09:35:49.760Z,1.62
2019-05-26T09:36:57.125Z,2.40
2019-05-26T09:38:02.352Z,2.47
2019-05-26T09:39:09.796Z,2.55
2019-05-26T09:40:16.901Z,2.75
2019-05-26T09:41:22.824Z,2.65
2019-05-26T09:42:28.267Z,2.85
2019-05-26T09:43:34.288Z,3.05
2019-05-26T09:44:39.388Z,2.80
2019-05-26T09:45:45.682Z,2.87
2019-05-26T09:46:51.198Z,3.07
2019-05-26T09:47:57.596Z,2.20
2019-05-26T09:49:04.017Z,1.85
2019-05-26T09:50:10.852Z,3.22
2019-05-26T09:51:15.949Z,2.08
2019-05-26T09:52:22.169Z,1.52
2019-05-26T09:53:27.328Z,2.05
2019-05-26T09:54:35.298Z,1.82
2019-05-26T09:55:40.547Z,1.72
2019-05-26T09:56:46.531Z,1.70
2019-05-26T09:57:52.115Z,1.77
2019-05-26T09:58:58.129Z,1.22
2019-05-26T10:00:03.239Z,1.67
2019-05-26T10:01:09.579Z,1.20
2019-05-26T10:02:14.670Z,1.30
2019-05-26T10:03:20.707Z,1.35
2019-05-26T10:04:26.149Z,1.40
2019-05-26T10:05:32.044Z,1.87
2019-05-26T10:06:37.300Z,1.55
2019-05-26T10:07:43.324Z,1.80
2019-05-26T10:08:49.049Z,2.27
2019-05-26T10:09:54.930Z,2.08
2019-05-26T10:11:00.221Z,2.33
2019-05-26T10:12:06.395Z,3.52
2019-05-26T10:13:12.451Z,3.65
2019-05-26T10:14:19.015Z,2.87
2019-05-26T10:15:24.442Z,3.00
2019-05-26T10:16:30.740Z,1.87
2019-05-26T10:17:36.309Z,1.77
2019-05-26T10:18:42.446Z,1.85
2019-05-26T10:19:47.644Z,2.08
2019-05-26T10:20:53.548Z,3.72
2019-05-26T10:21:59.869Z,2.75
2019-05-26T10:24:11.883Z,3.95
2019-05-26T10:25:18.138Z,3.08
2019-05-26T10:26:23.400Z,2.60
2019-05-26T10:27:29.612Z,2.37
2019-05-26T10:28:34.834Z,2.00
2019-05-26T10:29:41.320Z,8.65
2019-05-26T10:30:46.514Z,3.62
2019-05-26T10:31:52.607Z,1.92
2019-05-26T10:32:58.716Z,7.55
2019-05-26T10:34:04.681Z,7.60
2019-05-26T10:35:10.415Z,4.47
2019-05-26T10:36:16.920Z,4.70
2019-05-26T10:37:22.327Z,4.47
2019-05-26T10:38:28.527Z,2.25
2019-05-26T10:39:33.643Z,2.30
2019-05-26T10:40:40.007Z,1.77
2019-05-26T10:41:45.626Z,1.27
2019-05-26T10:42:51.534Z,1.67
2019-05-26T10:43:56.962Z,1.70
2019-05-26T10:45:03.519Z,1.47
2019-05-26T10:46:08.682Z,1.65
2019-05-26T10:47:14.979Z,1.70
2019-05-26T10:48:20.416Z,2.15
2019-05-26T10:49:26.304Z,2.92
2019-05-26T10:50:31.729Z,1.95
2019-05-26T10:51:37.625Z,2.20
2019-05-26T10:52:42.735Z,1.95
2019-05-26T10:53:49.301Z,1.53
2019-05-26T10:54:54.338Z,1.10
2019-05-26T10:56:00.251Z,1.30
2019-05-26T10:57:05.389Z,1.00
2019-05-26T10:58:11.419Z,1.05
2019-05-26T10:59:17.020Z,1.25
2019-05-26T11:00:23.613Z,1.25
2019-05-26T11:01:28.803Z,1.20
2019-05-26T11:02:34.798Z,1.07
2019-05-26T11:03:39.963Z,0.95
2019-05-26T11:04:45.755Z,1.27
2019-05-26T11:05:50.846Z,1.20
2019-05-26T11:06:57.502Z,1.40
2019-05-26T11:08:02.919Z,1.52
2019-05-26T11:09:09.715Z,2.37
2019-05-26T11:10:15.384Z,2.10
2019-05-26T11:11:21.597Z,1.98
2019-05-26T11:12:26.940Z,2.37
2019-05-26T11:13:33.157Z,2.50
2019-05-26T11:14:39.381Z,2.00
2019-05-26T11:15:46.239Z,2.20
2019-05-26T11:16:51.466Z,2.12
2019-05-26T11:17:57.755Z,1.60
2019-05-26T11:19:03.486Z,2.40
2019-05-26T11:20:10.437Z,2.27
2019-05-26T11:21:15.811Z,2.10
2019-05-26T11:22:21.754Z,1.85
2019-05-26T11:23:27.222Z,2.00
2019-05-26T11:24:33.564Z,1.90
2019-05-26T11:25:38.677Z,1.92
2019-05-26T11:26:44.626Z,2.15
2019-05-26T11:27:49.561Z,2.10
2019-05-26T11:28:55.443Z,2.30
2019-05-26T11:30:00.648Z,1.95
2019-05-26T11:31:06.792Z,2.30
2019-05-26T11:32:12.239Z,2.27
2019-05-26T11:33:18.517Z,1.90
2019-05-26T11:34:24.029Z,2.55
2019-05-26T11:35:29.986Z,2.10
2019-05-26T11:36:35.061Z,2.52
2019-05-26T11:37:40.926Z,1.98
2019-05-26T11:38:46.321Z,2.60
2019-05-26T11:39:52.521Z,2.20
2019-05-26T11:40:58.687Z,1.65
2019-05-26T11:42:13.258Z,1.92
2019-05-26T11:43:16.611Z,1.55
2019-05-26T11:44:19.678Z,1.35
2019-05-26T11:45:25.532Z,1.40
2019-05-26T11:46:31.648Z,1.40
2019-05-26T11:47:37.130Z,1.60
2019-05-26T11:48:42.899Z,1.40
2019-05-26T11:49:48.322Z,1.40
2019-05-26T11:50:54.736Z,1.20
2019-05-26T11:52:00.127Z,1.30
2019-05-26T11:53:06.186Z,1.47
2019-05-26T11:54:11.933Z,1.12
2019-05-26T11:55:18.596Z,1.20
2019-05-26T11:56:23.670Z,1.42
2019-05-26T11:57:29.874Z,1.40
2019-05-26T11:58:35.338Z,1.30
2019-05-26T11:59:41.327Z,1.30
2019-05-26T12:00:46.830Z,1.52
2019-05-26T12:01:52.805Z,1.42
2019-05-26T12:03:00.548Z,1.20
2019-05-26T12:04:06.269Z,1.62
2019-05-26T12:05:12.560Z,1.65
2019-05-26T12:06:18.685Z,2.10
2019-05-26T12:07:24.042Z,1.98
2019-05-26T12:08:30.654Z,1.52
2019-05-26T12:09:36.167Z,1.80
2019-05-26T12:10:42.416Z,1.75
2019-05-26T12:11:47.436Z,1.27
2019-05-26T12:12:53.246Z,1.32
2019-05-26T12:13:58.624Z,1.17
2019-05-26T12:15:05.433Z,1.50
2019-05-26T12:16:11.199Z,1.30
2019-05-26T12:17:17.458Z,1.30
2019-05-26T12:18:22.939Z,1.22
2019-05-26T12:19:29.670Z,1.32
2019-05-26T12:20:35.221Z,1.30
2019-05-26T12:21:41.649Z,1.20
2019-05-26T12:22:47.226Z,1.10
2019-05-26T12:23:55.144Z,1.17
2019-05-26T12:24:59.915Z,1.00
2019-05-26T12:26:05.788Z,1.00
2019-05-26T12:27:11.066Z,0.90
2019-05-26T12:28:16.877Z,1.27
2019-05-26T12:29:22.214Z,1.25
2019-05-26T12:30:28.726Z,1.10
2019-05-26T12:31:39.557Z,1.30
2019-05-26T12:32:45.619Z,1.22
2019-05-26T12:33:53.319Z,1.60
2019-05-26T12:34:59.631Z,1.50
2019-05-26T12:36:05.632Z,1.40
2019-05-26T12:37:11.599Z,1.40
2019-05-26T12:38:16.973Z,1.40
2019-05-26T12:39:23.156Z,1.30
2019-05-26T12:40:28.632Z,1.40
2019-05-26T12:41:37.173Z,1.60
2019-05-26T12:42:41.878Z,1.00
2019-05-26T12:43:48.194Z,1.00
2019-05-26T12:44:53.585Z,1.27
2019-05-26T12:45:59.856Z,1.20
2019-05-26T12:47:05.957Z,1.20
2019-05-26T12:48:12.230Z,1.47
2019-05-26T12:49:17.169Z,1.00
2019-05-26T12:50:23.158Z,1.20
2019-05-26T12:51:28.629Z,1.25
2019-05-26T12:52:35.283Z,0.98
2019-05-26T12:53:40.872Z,1.05
2019-05-26T12:54:46.719Z,1.10
2019-05-26T12:55:52.160Z,0.95
2019-05-26T12:56:58.293Z,1.10
2019-05-26T12:58:03.637Z,1.22
2019-05-26T12:59:09.792Z,1.35
2019-05-26T13:00:15.346Z,1.10
2019-05-26T13:01:21.577Z,1.20
2019-05-26T13:02:27.107Z,1.50
2019-05-26T13:03:33.465Z,1.40
2019-05-26T13:04:38.614Z,1.00
2019-05-26T13:05:45.618Z,1.40
2019-05-26T13:06:51.418Z,1.20
2019-05-26T13:07:57.624Z,0.95
2019-05-26T13:09:03.131Z,1.30
2019-05-26T13:10:09.956Z,1.17
2019-05-26T13:11:16.261Z,1.52
2019-05-26T13:12:23.166Z,1.25
2019-05-26T13:13:28.180Z,1.42
2019-05-26T13:14:34.791Z,1.35
2019-05-26T13:15:39.982Z,1.30
2019-05-26T13:16:46.201Z,1.52
2019-05-26T13:17:51.705Z,1.00
2019-05-26T13:18:57.823Z,1.22
2019-05-26T13:20:03.033Z,1.22
2019-05-26T13:21:09.338Z,1.10
2019-05-26T13:22:14.803Z,1.35
2019-05-26T13:23:20.834Z,1.32
2019-05-26T13:24:25.959Z,1.12
2019-05-26T13:25:31.828Z,0.85
2019-05-26T13:26:37.008Z,1.37
2019-05-26T13:27:42.972Z,1.20
2019-05-26T13:28:47.988Z,1.57
2019-05-26T13:29:54.037Z,1.40
2019-05-26T13:31:00.045Z,1.42
2019-05-26T13:32:06.067Z,1.47
2019-05-26T13:33:11.161Z,1.07
2019-05-26T13:34:17.051Z,1.22
2019-05-26T13:35:22.966Z,1.10
2019-05-26T13:36:28.908Z,1.25
2019-05-26T13:37:34.245Z,1.10
2019-05-26T13:38:40.475Z,1.67
2019-05-26T13:39:45.863Z,1.62
2019-05-26T13:40:51.716Z,1.35
2019-05-26T13:41:56.801Z,1.30
2019-05-26T13:43:03.193Z,1.70
2019-05-26T13:44:08.307Z,1.65
2019-05-26T13:45:22.709Z,1.60
2019-05-26T13:46:23.952Z,1.30
2019-05-26T13:47:30.342Z,1.40
2019-05-26T13:48:35.497Z,1.27
2019-05-26T13:49:41.612Z,1.52
2019-05-26T13:50:46.688Z,1.45
2019-05-26T13:51:52.656Z,1.00
2019-05-26T13:52:58.006Z,1.60
2019-05-26T13:54:03.963Z,1.80
2019-05-26T13:55:10.041Z,1.50
2019-05-26T13:56:15.847Z,1.22
2019-05-26T13:57:21.197Z,1.40
2019-05-26T13:58:27.389Z,0.98
2019-05-26T13:59:32.711Z,0.80
2019-05-26T14:00:38.636Z,1.00
2019-05-26T14:01:43.966Z,1.80
2019-05-26T14:02:50.236Z,1.50
2019-05-26T14:03:55.409Z,1.22
2019-05-26T14:05:01.670Z,1.72
2019-05-26T14:06:07.041Z,1.47
2019-05-26T14:07:13.219Z,1.60
2019-05-26T14:08:18.644Z,1.55
2019-05-26T14:09:25.121Z,1.22
2019-05-26T14:10:36.000Z,1.20
2019-05-26T14:11:41.909Z,1.17
2019-05-26T14:12:48.065Z,1.40
2019-05-26T14:13:54.675Z,1.47
2019-05-26T14:15:00.146Z,1.60
2019-05-26T14:16:06.580Z,1.42
2019-05-26T14:17:13.446Z,1.10
2019-05-26T14:18:20.447Z,1.40
2019-05-26T14:19:28.307Z,1.22
2019-05-26T14:20:39.652Z,1.30
2019-05-26T14:21:45.807Z,1.40
2019-05-26T14:22:51.913Z,1.40
2019-05-26T14:23:57.837Z,1.42
2019-05-26T14:25:04.957Z,1.72
2019-05-26T14:26:10.426Z,1.67
2019-05-26T14:27:16.893Z,1.45
2019-05-26T14:28:21.971Z,1.42
2019-05-26T14:29:28.238Z,1.50
2019-05-26T14:30:33.429Z,1.40
2019-05-26T14:31:39.633Z,1.50
2019-05-26T14:32:44.990Z,1.45
2019-05-26T14:33:51.877Z,1.57
2019-05-26T14:34:57.170Z,1.40
2019-05-26T14:36:03.018Z,1.50